sensor_id;sensor_type;location;lat;lon;timestamp;temperature;humidity
48666;DHT22;34452;50.796;4.994;2022-12-20T00:01:00;11.40;99.90
48666;DHT22;34452;50.796;4.994;2022-12-20T00:03:25;11.30;99.90
48666;DHT22;34452;50.796;4.994;2022-12-20T00:05:51;11.30;99.90
48666;DHT22;34452;50.796;4.994;2022-12-20T00:08:17;11.30;99.90
48666;DHT22;34452;50.796;4.994;2022-12-20T00:10:44;11.30;99.90
48666;DHT22;34452;50.796;4.994;2022-12-20T00:13:11;11.30;99.90
48666;DHT22;34452;50.796;4.994;2022-12-20T00:15:37;11.30;99.90
48666;DHT22;34452;50.796;4.994;2022-12-20T00:18:03;11.30;99.90
48666;DHT22;34452;50.796;4.994;2022-12-20T00:20:29;11.30;99.90
48666;DHT22;34452;50.796;4.994;2022-12-20T00:22:54;11.30;99.90
48666;DHT22;34452;50.796;4.994;2022-12-20T00:25:20;11.40;99.90
48666;DHT22;34452;50.796;4.994;2022-12-20T00:27:47;11.30;99.90
48666;DHT22;34452;50.796;4.994;2022-12-20T00:30:13;11.40;99.90
48666;DHT22;34452;50.796;4.994;2022-12-20T00:32:39;11.30;99.90
48666;DHT22;34452;50.796;4.994;2022-12-20T00:35:05;11.30;99.90
48666;DHT22;34452;50.796;4.994;2022-12-20T00:37:31;11.30;99.90
48666;DHT22;34452;50.796;4.994;2022-12-20T00:39:57;11.30;99.90
48666;DHT22;34452;50.796;4.994;2022-12-20T00:42:23;11.20;99.90
48666;DHT22;34452;50.796;4.994;2022-12-20T00:44:48;11.20;99.90
48666;DHT22;34452;50.796;4.994;2022-12-20T00:47:14;11.20;99.90
48666;DHT22;34452;50.796;4.994;2022-12-20T00:49:40;11.20;99.90
48666;DHT22;34452;50.796;4.994;2022-12-20T00:52:06;11.20;99.90
48666;DHT22;34452;50.796;4.994;2022-12-20T00:54:32;11.10;99.90
48666;DHT22;34452;50.796;4.994;2022-12-20T00:56:57;11.20;99.90
48666;DHT22;34452;50.796;4.994;2022-12-20T00:59:23;11.20;99.90
48666;DHT22;34452;50.796;4.994;2022-12-20T01:01:50;11.20;99.90
48666;DHT22;34452;50.796;4.994;2022-12-20T01:04:15;11.20;99.90
48666;DHT22;34452;50.796;4.994;2022-12-20T01:06:41;11.20;99.90
48666;DHT22;34452;50.796;4.994;2022-12-20T01:09:07;11.20;99.90
48666;DHT22;34452;50.796;4.994;2022-12-20T01:11:35;11.20;99.90
48666;DHT22;34452;50.796;4.994;2022-12-20T01:14:06;11.20;99.90
48666;DHT22;34452;50.796;4.994;2022-12-20T01:16:35;11.10;99.90
48666;DHT22;34452;50.796;4.994;2022-12-20T01:19:02;11.10;99.90
48666;DHT22;34452;50.796;4.994;2022-12-20T01:21:29;11.00;99.90
48666;DHT22;34452;50.796;4.994;2022-12-20T01:23:55;11.00;99.90
48666;DHT22;34452;50.796;4.994;2022-12-20T01:26:22;11.00;99.90
48666;DHT22;34452;50.796;4.994;2022-12-20T01:28:52;11.00;99.90
48666;DHT22;34452;50.796;4.994;2022-12-20T01:31:19;11.00;99.90
48666;DHT22;34452;50.796;4.994;2022-12-20T01:33:46;11.10;99.90
48666;DHT22;34452;50.796;4.994;2022-12-20T01:36:18;11.10;99.90
48666;DHT22;34452;50.796;4.994;2022-12-20T01:38:44;11.00;99.90
48666;DHT22;34452;50.796;4.994;2022-12-20T01:41:21;11.00;99.90
48666;DHT22;34452;50.796;4.994;2022-12-20T01:43:50;11.00;99.90
48666;DHT22;34452;50.796;4.994;2022-12-20T01:46:17;10.90;99.90
48666;DHT22;34452;50.796;4.994;2022-12-20T01:48:53;10.90;99.90
48666;DHT22;34452;50.796;4.994;2022-12-20T01:51:20;10.90;99.90
48666;DHT22;34452;50.796;4.994;2022-12-20T01:53:48;10.90;99.90
48666;DHT22;34452;50.796;4.994;2022-12-20T01:56:16;10.90;99.90
48666;DHT22;34452;50.796;4.994;2022-12-20T01:58:42;10.90;99.90
48666;DHT22;34452;50.796;4.994;2022-12-20T02:01:10;10.90;99.90
48666;DHT22;34452;50.796;4.994;2022-12-20T02:03:35;10.90;99.90
48666;DHT22;34452;50.796;4.994;2022-12-20T02:06:17;10.90;99.90
48666;DHT22;34452;50.796;4.994;2022-12-20T02:08:44;10.90;99.90
48666;DHT22;34452;50.796;4.994;2022-12-20T02:11:18;10.90;99.90
48666;DHT22;34452;50.796;4.994;2022-12-20T02:14:17;10.90;99.90
48666;DHT22;34452;50.796;4.994;2022-12-20T02:17:00;10.90;99.90
48666;DHT22;34452;50.796;4.994;2022-12-20T02:27:42;10.90;99.90
48666;DHT22;34452;50.796;4.994;2022-12-20T02:30:21;10.90;99.90
48666;DHT22;34452;50.796;4.994;2022-12-20T02:32:51;10.80;99.90
48666;DHT22;34452;50.796;4.994;2022-12-20T02:35:23;10.90;99.90
48666;DHT22;34452;50.796;4.994;2022-12-20T02:37:52;10.90;99.90
48666;DHT22;34452;50.796;4.994;2022-12-20T02:40:21;10.80;99.90
48666;DHT22;34452;50.796;4.994;2022-12-20T02:42:51;10.80;99.90
48666;DHT22;34452;50.796;4.994;2022-12-20T02:45:20;10.70;99.90
48666;DHT22;34452;50.796;4.994;2022-12-20T02:47:57;10.80;99.90
48666;DHT22;34452;50.796;4.994;2022-12-20T02:50:31;10.70;99.90
48666;DHT22;34452;50.796;4.994;2022-12-20T02:52:59;10.60;99.90
48666;DHT22;34452;50.796;4.994;2022-12-20T02:55:32;10.60;99.90
48666;DHT22;34452;50.796;4.994;2022-12-20T02:58:07;10.60;99.90
48666;DHT22;34452;50.796;4.994;2022-12-20T03:00:39;10.50;99.90
48666;DHT22;34452;50.796;4.994;2022-12-20T03:03:08;10.50;99.90
48666;DHT22;34452;50.796;4.994;2022-12-20T03:05:54;10.50;99.90
48666;DHT22;34452;50.796;4.994;2022-12-20T03:08:21;10.60;99.90
48666;DHT22;34452;50.796;4.994;2022-12-20T03:10:47;10.60;99.90
48666;DHT22;34452;50.796;4.994;2022-12-20T03:13:14;10.70;99.90
48666;DHT22;34452;50.796;4.994;2022-12-20T03:15:39;10.70;99.90
48666;DHT22;34452;50.796;4.994;2022-12-20T03:18:06;10.70;99.90
48666;DHT22;34452;50.796;4.994;2022-12-20T03:20:31;10.80;99.90
48666;DHT22;34452;50.796;4.994;2022-12-20T03:22:57;10.80;99.90
48666;DHT22;34452;50.796;4.994;2022-12-20T03:25:23;10.80;99.90
48666;DHT22;34452;50.796;4.994;2022-12-20T03:27:48;10.90;99.90
48666;DHT22;34452;50.796;4.994;2022-12-20T03:30:14;10.90;99.90
48666;DHT22;34452;50.796;4.994;2022-12-20T03:32:40;10.90;99.90
48666;DHT22;34452;50.796;4.994;2022-12-20T03:35:06;10.90;99.90
48666;DHT22;34452;50.796;4.994;2022-12-20T03:37:32;10.90;99.90
48666;DHT22;34452;50.796;4.994;2022-12-20T03:39:57;10.90;99.90
48666;DHT22;34452;50.796;4.994;2022-12-20T03:42:23;10.90;99.90
48666;DHT22;34452;50.796;4.994;2022-12-20T03:44:49;10.90;99.90
48666;DHT22;34452;50.796;4.994;2022-12-20T03:47:14;10.90;99.90
48666;DHT22;34452;50.796;4.994;2022-12-20T03:49:40;10.80;99.90
48666;DHT22;34452;50.796;4.994;2022-12-20T03:52:06;10.80;99.90
48666;DHT22;34452;50.796;4.994;2022-12-20T03:54:32;10.80;99.90
48666;DHT22;34452;50.796;4.994;2022-12-20T03:56:58;10.80;99.90
48666;DHT22;34452;50.796;4.994;2022-12-20T03:59:23;10.80;99.90
48666;DHT22;34452;50.796;4.994;2022-12-20T04:01:49;10.80;99.90
48666;DHT22;34452;50.796;4.994;2022-12-20T04:04:15;10.80;99.90
48666;DHT22;34452;50.796;4.994;2022-12-20T04:06:41;10.80;99.90
48666;DHT22;34452;50.796;4.994;2022-12-20T04:09:07;10.70;99.90
48666;DHT22;34452;50.796;4.994;2022-12-20T04:11:32;10.70;99.90
48666;DHT22;34452;50.796;4.994;2022-12-20T04:13:58;10.70;99.90
48666;DHT22;34452;50.796;4.994;2022-12-20T04:16:26;10.80;99.90
48666;DHT22;34452;50.796;4.994;2022-12-20T04:18:52;10.80;99.90
48666;DHT22;34452;50.796;4.994;2022-12-20T04:21:23;10.80;99.90
48666;DHT22;34452;50.796;4.994;2022-12-20T04:23:49;10.90;99.90
48666;DHT22;34452;50.796;4.994;2022-12-20T04:26:14;10.90;99.90
48666;DHT22;34452;50.796;4.994;2022-12-20T04:28:40;10.90;99.90
48666;DHT22;34452;50.796;4.994;2022-12-20T04:31:06;10.90;99.90
48666;DHT22;34452;50.796;4.994;2022-12-20T04:33:32;10.90;99.90
48666;DHT22;34452;50.796;4.994;2022-12-20T04:35:57;10.90;99.90
48666;DHT22;34452;50.796;4.994;2022-12-20T04:38:23;11.00;99.90
48666;DHT22;34452;50.796;4.994;2022-12-20T04:40:50;10.90;99.90
48666;DHT22;34452;50.796;4.994;2022-12-20T04:43:17;10.90;99.90
48666;DHT22;34452;50.796;4.994;2022-12-20T04:45:46;10.90;99.90
48666;DHT22;34452;50.796;4.994;2022-12-20T04:48:11;10.90;99.90
48666;DHT22;34452;50.796;4.994;2022-12-20T04:50:37;10.90;99.90
48666;DHT22;34452;50.796;4.994;2022-12-20T04:53:03;10.90;99.90
48666;DHT22;34452;50.796;4.994;2022-12-20T04:55:47;10.90;99.90
48666;DHT22;34452;50.796;4.994;2022-12-20T04:58:13;10.90;99.90
48666;DHT22;34452;50.796;4.994;2022-12-20T05:00:39;10.90;99.90
48666;DHT22;34452;50.796;4.994;2022-12-20T05:03:04;10.90;99.90
48666;DHT22;34452;50.796;4.994;2022-12-20T05:05:30;11.00;99.90
48666;DHT22;34452;50.796;4.994;2022-12-20T05:07:56;11.00;99.90
48666;DHT22;34452;50.796;4.994;2022-12-20T05:10:22;11.00;99.90
48666;DHT22;34452;50.796;4.994;2022-12-20T05:12:48;11.00;99.90
48666;DHT22;34452;50.796;4.994;2022-12-20T05:15:13;11.00;99.90
48666;DHT22;34452;50.796;4.994;2022-12-20T05:17:39;11.00;99.90
48666;DHT22;34452;50.796;4.994;2022-12-20T05:20:06;11.00;99.90
48666;DHT22;34452;50.796;4.994;2022-12-20T05:22:32;11.00;99.90
48666;DHT22;34452;50.796;4.994;2022-12-20T05:25:16;11.00;99.90
48666;DHT22;34452;50.796;4.994;2022-12-20T05:28:00;10.90;99.90
48666;DHT22;34452;50.796;4.994;2022-12-20T05:30:26;10.90;99.90
48666;DHT22;34452;50.796;4.994;2022-12-20T05:32:52;10.90;99.90
48666;DHT22;34452;50.796;4.994;2022-12-20T05:35:18;10.80;99.90
48666;DHT22;34452;50.796;4.994;2022-12-20T05:37:44;10.90;99.90
48666;DHT22;34452;50.796;4.994;2022-12-20T05:40:10;10.90;99.90
48666;DHT22;34452;50.796;4.994;2022-12-20T05:42:36;11.00;99.90
48666;DHT22;34452;50.796;4.994;2022-12-20T05:45:03;11.00;99.90
48666;DHT22;34452;50.796;4.994;2022-12-20T05:47:30;11.10;99.90
48666;DHT22;34452;50.796;4.994;2022-12-20T05:49:58;11.10;99.90
48666;DHT22;34452;50.796;4.994;2022-12-20T05:52:24;11.10;99.90
48666;DHT22;34452;50.796;4.994;2022-12-20T05:54:50;11.20;99.90
48666;DHT22;34452;50.796;4.994;2022-12-20T05:57:16;11.20;99.90
48666;DHT22;34452;50.796;4.994;2022-12-20T05:59:42;11.20;99.90
48666;DHT22;34452;50.796;4.994;2022-12-20T06:02:07;11.10;99.90
48666;DHT22;34452;50.796;4.994;2022-12-20T06:04:36;11.20;99.90
48666;DHT22;34452;50.796;4.994;2022-12-20T06:07:03;11.10;99.90
48666;DHT22;34452;50.796;4.994;2022-12-20T06:09:30;11.10;99.90
48666;DHT22;34452;50.796;4.994;2022-12-20T06:11:56;11.20;99.90
48666;DHT22;34452;50.796;4.994;2022-12-20T06:14:21;11.20;99.90
48666;DHT22;34452;50.796;4.994;2022-12-20T06:16:47;11.20;99.90
48666;DHT22;34452;50.796;4.994;2022-12-20T06:19:13;11.20;99.90
48666;DHT22;34452;50.796;4.994;2022-12-20T06:21:39;11.20;99.90
48666;DHT22;34452;50.796;4.994;2022-12-20T06:24:05;11.10;99.90
48666;DHT22;34452;50.796;4.994;2022-12-20T06:26:31;11.10;99.90
48666;DHT22;34452;50.796;4.994;2022-12-20T06:29:01;11.00;99.90
48666;DHT22;34452;50.796;4.994;2022-12-20T06:31:27;11.00;99.90
48666;DHT22;34452;50.796;4.994;2022-12-20T06:33:53;11.00;99.90
48666;DHT22;34452;50.796;4.994;2022-12-20T06:36:19;11.00;99.90
48666;DHT22;34452;50.796;4.994;2022-12-20T06:38:44;10.90;99.90
48666;DHT22;34452;50.796;4.994;2022-12-20T06:41:10;10.90;99.90
48666;DHT22;34452;50.796;4.994;2022-12-20T06:43:36;10.90;99.90
48666;DHT22;34452;50.796;4.994;2022-12-20T06:46:01;11.00;99.90
48666;DHT22;34452;50.796;4.994;2022-12-20T06:48:28;11.00;99.90
48666;DHT22;34452;50.796;4.994;2022-12-20T06:50:54;11.00;99.90
48666;DHT22;34452;50.796;4.994;2022-12-20T06:53:19;11.00;99.90
48666;DHT22;34452;50.796;4.994;2022-12-20T06:55:48;11.10;99.90
48666;DHT22;34452;50.796;4.994;2022-12-20T06:58:17;11.10;99.90
48666;DHT22;34452;50.796;4.994;2022-12-20T07:00:42;11.10;99.90
48666;DHT22;34452;50.796;4.994;2022-12-20T07:03:08;11.10;99.90
48666;DHT22;34452;50.796;4.994;2022-12-20T07:05:34;11.10;99.90
48666;DHT22;34452;50.796;4.994;2022-12-20T07:08:00;11.10;99.90
48666;DHT22;34452;50.796;4.994;2022-12-20T07:10:27;11.10;99.90
48666;DHT22;34452;50.796;4.994;2022-12-20T07:12:53;11.10;99.90
48666;DHT22;34452;50.796;4.994;2022-12-20T07:15:18;11.10;99.90
48666;DHT22;34452;50.796;4.994;2022-12-20T07:17:46;11.10;99.90
48666;DHT22;34452;50.796;4.994;2022-12-20T07:20:12;11.10;99.90
48666;DHT22;34452;50.796;4.994;2022-12-20T07:22:38;11.10;99.90
48666;DHT22;34452;50.796;4.994;2022-12-20T07:25:04;11.10;99.90
48666;DHT22;34452;50.796;4.994;2022-12-20T07:27:29;11.10;99.90
48666;DHT22;34452;50.796;4.994;2022-12-20T07:29:55;11.00;99.90
48666;DHT22;34452;50.796;4.994;2022-12-20T07:32:21;11.00;99.90
48666;DHT22;34452;50.796;4.994;2022-12-20T07:34:47;11.00;99.90
48666;DHT22;34452;50.796;4.994;2022-12-20T07:37:12;11.00;99.90
48666;DHT22;34452;50.796;4.994;2022-12-20T07:39:38;11.00;99.90
48666;DHT22;34452;50.796;4.994;2022-12-20T07:42:04;10.90;99.90
48666;DHT22;34452;50.796;4.994;2022-12-20T07:44:29;10.90;99.90
48666;DHT22;34452;50.796;4.994;2022-12-20T07:46:55;10.90;99.90
48666;DHT22;34452;50.796;4.994;2022-12-20T07:49:21;10.90;99.90
48666;DHT22;34452;50.796;4.994;2022-12-20T07:51:50;10.90;99.90
48666;DHT22;34452;50.796;4.994;2022-12-20T07:54:37;10.90;99.90
48666;DHT22;34452;50.796;4.994;2022-12-20T07:57:14;10.90;99.90
48666;DHT22;34452;50.796;4.994;2022-12-20T07:59:44;10.90;99.90
48666;DHT22;34452;50.796;4.994;2022-12-20T08:02:17;10.90;99.90
48666;DHT22;34452;50.796;4.994;2022-12-20T08:04:43;10.90;99.90
48666;DHT22;34452;50.796;4.994;2022-12-20T08:07:09;10.90;99.90
48666;DHT22;34452;50.796;4.994;2022-12-20T08:09:39;10.90;99.90
48666;DHT22;34452;50.796;4.994;2022-12-20T08:12:07;10.90;99.90
48666;DHT22;34452;50.796;4.994;2022-12-20T08:14:35;10.90;99.90
48666;DHT22;34452;50.796;4.994;2022-12-20T08:17:02;10.90;99.90
48666;DHT22;34452;50.796;4.994;2022-12-20T08:19:28;10.90;99.90
48666;DHT22;34452;50.796;4.994;2022-12-20T08:21:53;10.80;99.90
48666;DHT22;34452;50.796;4.994;2022-12-20T08:24:19;10.80;99.90
48666;DHT22;34452;50.796;4.994;2022-12-20T08:26:45;10.80;99.90
48666;DHT22;34452;50.796;4.994;2022-12-20T08:29:11;10.80;99.90
48666;DHT22;34452;50.796;4.994;2022-12-20T08:31:40;10.70;99.90
48666;DHT22;34452;50.796;4.994;2022-12-20T08:34:09;10.70;99.90
48666;DHT22;34452;50.796;4.994;2022-12-20T08:36:35;10.70;99.90
48666;DHT22;34452;50.796;4.994;2022-12-20T08:39:04;10.70;99.90
48666;DHT22;34452;50.796;4.994;2022-12-20T08:41:30;10.70;99.90
48666;DHT22;34452;50.796;4.994;2022-12-20T08:43:56;10.70;99.90
48666;DHT22;34452;50.796;4.994;2022-12-20T08:46:22;10.70;99.90
48666;DHT22;34452;50.796;4.994;2022-12-20T08:48:47;10.70;99.90
48666;DHT22;34452;50.796;4.994;2022-12-20T08:51:13;10.80;99.90
48666;DHT22;34452;50.796;4.994;2022-12-20T08:53:39;10.70;99.90
48666;DHT22;34452;50.796;4.994;2022-12-20T08:56:11;10.80;99.90
48666;DHT22;34452;50.796;4.994;2022-12-20T08:58:38;10.80;99.90
48666;DHT22;34452;50.796;4.994;2022-12-20T09:01:06;10.80;99.90
48666;DHT22;34452;50.796;4.994;2022-12-20T09:03:34;10.80;99.90
48666;DHT22;34452;50.796;4.994;2022-12-20T09:06:03;10.80;99.90
48666;DHT22;34452;50.796;4.994;2022-12-20T09:08:32;10.90;99.90
48666;DHT22;34452;50.796;4.994;2022-12-20T09:11:12;10.90;99.90
48666;DHT22;34452;50.796;4.994;2022-12-20T09:13:42;11.00;99.90
48666;DHT22;34452;50.796;4.994;2022-12-20T09:16:09;11.10;99.90
48666;DHT22;34452;50.796;4.994;2022-12-20T09:18:35;11.10;99.90
48666;DHT22;34452;50.796;4.994;2022-12-20T09:21:03;11.20;99.90
48666;DHT22;34452;50.796;4.994;2022-12-20T09:23:29;11.20;99.90
48666;DHT22;34452;50.796;4.994;2022-12-20T09:26:00;11.20;99.90
48666;DHT22;34452;50.796;4.994;2022-12-20T09:28:27;11.30;99.90
48666;DHT22;34452;50.796;4.994;2022-12-20T09:31:00;11.30;99.90
48666;DHT22;34452;50.796;4.994;2022-12-20T09:33:27;11.40;99.90
48666;DHT22;34452;50.796;4.994;2022-12-20T09:35:53;11.40;99.90
48666;DHT22;34452;50.796;4.994;2022-12-20T09:38:19;11.40;99.90
48666;DHT22;34452;50.796;4.994;2022-12-20T09:40:50;11.40;99.90
48666;DHT22;34452;50.796;4.994;2022-12-20T09:43:17;11.40;99.90
48666;DHT22;34452;50.796;4.994;2022-12-20T09:45:46;11.50;99.90
48666;DHT22;34452;50.796;4.994;2022-12-20T09:48:21;11.40;99.90
48666;DHT22;34452;50.796;4.994;2022-12-20T09:56:15;11.60;99.90
48666;DHT22;34452;50.796;4.994;2022-12-20T10:01:26;11.60;99.90
48666;DHT22;34452;50.796;4.994;2022-12-20T10:03:53;11.60;99.90
48666;DHT22;34452;50.796;4.994;2022-12-20T10:08:59;11.70;99.90
48666;DHT22;34452;50.796;4.994;2022-12-20T10:16:44;11.70;99.90
48666;DHT22;34452;50.796;4.994;2022-12-20T10:24:47;11.90;99.90
48666;DHT22;34452;50.796;4.994;2022-12-20T10:27:19;12.00;99.90
48666;DHT22;34452;50.796;4.994;2022-12-20T10:29:47;12.00;99.90
48666;DHT22;34452;50.796;4.994;2022-12-20T10:32:20;12.00;99.90
48666;DHT22;34452;50.796;4.994;2022-12-20T10:35:29;12.00;99.90
48666;DHT22;34452;50.796;4.994;2022-12-20T10:38:01;11.90;99.90
48666;DHT22;34452;50.796;4.994;2022-12-20T10:40:35;11.70;99.90
48666;DHT22;34452;50.796;4.994;2022-12-20T10:43:03;11.70;99.90
48666;DHT22;34452;50.796;4.994;2022-12-20T10:45:32;11.60;99.90
48666;DHT22;34452;50.796;4.994;2022-12-20T10:48:03;11.60;99.90
48666;DHT22;34452;50.796;4.994;2022-12-20T10:50:29;11.70;99.90
48666;DHT22;34452;50.796;4.994;2022-12-20T10:53:22;11.70;99.90
48666;DHT22;34452;50.796;4.994;2022-12-20T10:55:50;11.70;99.90
48666;DHT22;34452;50.796;4.994;2022-12-20T10:58:32;11.70;99.90
48666;DHT22;34452;50.796;4.994;2022-12-20T11:01:11;11.70;99.90
48666;DHT22;34452;50.796;4.994;2022-12-20T11:06:44;11.70;99.90
48666;DHT22;34452;50.796;4.994;2022-12-20T11:09:32;11.60;99.90
48666;DHT22;34452;50.796;4.994;2022-12-20T11:12:12;11.60;99.90
48666;DHT22;34452;50.796;4.994;2022-12-20T11:14:39;11.50;99.90
48666;DHT22;34452;50.796;4.994;2022-12-20T11:20:31;11.50;99.90
48666;DHT22;34452;50.796;4.994;2022-12-20T11:31:39;11.30;99.90
48666;DHT22;34452;50.796;4.994;2022-12-20T11:37:23;11.20;99.90
48666;DHT22;34452;50.796;4.994;2022-12-20T11:40:09;11.10;99.90
48666;DHT22;34452;50.796;4.994;2022-12-20T11:56:36;11.10;99.90
48666;DHT22;34452;50.796;4.994;2022-12-20T11:59:28;11.10;99.90
48666;DHT22;34452;50.796;4.994;2022-12-20T12:02:07;11.10;99.90
48666;DHT22;34452;50.796;4.994;2022-12-20T12:04:49;11.10;99.90
48666;DHT22;34452;50.796;4.994;2022-12-20T12:07:24;11.10;99.90
48666;DHT22;34452;50.796;4.994;2022-12-20T12:10:03;11.10;99.90
48666;DHT22;34452;50.796;4.994;2022-12-20T12:12:33;11.20;99.90
48666;DHT22;34452;50.796;4.994;2022-12-20T12:18:11;11.20;99.90
48666;DHT22;34452;50.796;4.994;2022-12-20T12:25:44;11.10;99.90
48666;DHT22;34452;50.796;4.994;2022-12-20T12:28:12;11.00;99.90
48666;DHT22;34452;50.796;4.994;2022-12-20T12:30:49;11.00;99.90
48666;DHT22;34452;50.796;4.994;2022-12-20T12:33:21;11.00;99.90
48666;DHT22;34452;50.796;4.994;2022-12-20T12:46:30;10.80;99.90
48666;DHT22;34452;50.796;4.994;2022-12-20T12:49:14;10.80;99.90
48666;DHT22;34452;50.796;4.994;2022-12-20T12:51:48;10.80;99.90
48666;DHT22;34452;50.796;4.994;2022-12-20T12:54:27;10.80;99.90
48666;DHT22;34452;50.796;4.994;2022-12-20T12:57:20;10.80;99.90
48666;DHT22;34452;50.796;4.994;2022-12-20T12:59:47;10.80;99.90
48666;DHT22;34452;50.796;4.994;2022-12-20T13:04:59;10.70;99.90
48666;DHT22;34452;50.796;4.994;2022-12-20T13:10:54;10.80;99.90
48666;DHT22;34452;50.796;4.994;2022-12-20T13:18:00;10.70;99.90
48666;DHT22;34452;50.796;4.994;2022-12-20T13:20:27;10.70;99.90
48666;DHT22;34452;50.796;4.994;2022-12-20T13:25:47;10.70;99.90
48666;DHT22;34452;50.796;4.994;2022-12-20T13:33:43;10.70;99.90
48666;DHT22;34452;50.796;4.994;2022-12-20T13:41:35;10.70;99.90
48666;DHT22;34452;50.796;4.994;2022-12-20T13:49:22;10.70;99.90
48666;DHT22;34452;50.796;4.994;2022-12-20T13:54:49;10.80;99.90
48666;DHT22;34452;50.796;4.994;2022-12-20T13:57:25;10.80;99.90
48666;DHT22;34452;50.796;4.994;2022-12-20T13:59:53;10.80;99.90
48666;DHT22;34452;50.796;4.994;2022-12-20T14:02:32;10.80;99.90
48666;DHT22;34452;50.796;4.994;2022-12-20T14:05:02;10.80;99.90
48666;DHT22;34452;50.796;4.994;2022-12-20T14:07:31;10.80;99.90
48666;DHT22;34452;50.796;4.994;2022-12-20T14:10:01;10.80;99.90
48666;DHT22;34452;50.796;4.994;2022-12-20T14:12:28;10.80;99.90
48666;DHT22;34452;50.796;4.994;2022-12-20T14:14:56;10.80;99.90
48666;DHT22;34452;50.796;4.994;2022-12-20T14:17:31;10.80;99.90
48666;DHT22;34452;50.796;4.994;2022-12-20T14:22:35;10.80;99.90
48666;DHT22;34452;50.796;4.994;2022-12-20T14:25:01;10.80;99.90
48666;DHT22;34452;50.796;4.994;2022-12-20T14:27:32;10.80;99.90
48666;DHT22;34452;50.796;4.994;2022-12-20T14:29:58;10.80;99.90
48666;DHT22;34452;50.796;4.994;2022-12-20T14:32:24;10.80;99.90
48666;DHT22;34452;50.796;4.994;2022-12-20T14:34:51;10.70;99.90
48666;DHT22;34452;50.796;4.994;2022-12-20T14:42:36;10.80;99.90
48666;DHT22;34452;50.796;4.994;2022-12-20T14:50:34;10.80;99.90
48666;DHT22;34452;50.796;4.994;2022-12-20T14:53:00;10.80;99.90
48666;DHT22;34452;50.796;4.994;2022-12-20T14:55:37;10.80;99.90
48666;DHT22;34452;50.796;4.994;2022-12-20T15:00:59;10.80;99.90
48666;DHT22;34452;50.796;4.994;2022-12-20T15:03:26;10.90;99.90
48666;DHT22;34452;50.796;4.994;2022-12-20T15:05:57;10.80;99.90
48666;DHT22;34452;50.796;4.994;2022-12-20T15:08:28;10.90;99.90
48666;DHT22;34452;50.796;4.994;2022-12-20T15:13:42;10.90;99.90
48666;DHT22;34452;50.796;4.994;2022-12-20T15:18:40;10.90;99.90
48666;DHT22;34452;50.796;4.994;2022-12-20T15:21:15;10.90;99.90
48666;DHT22;34452;50.796;4.994;2022-12-20T15:23:47;10.90;99.90
48666;DHT22;34452;50.796;4.994;2022-12-20T15:26:19;10.90;99.90
48666;DHT22;34452;50.796;4.994;2022-12-20T15:28:45;10.80;99.90
48666;DHT22;34452;50.796;4.994;2022-12-20T15:31:13;10.80;99.90
48666;DHT22;34452;50.796;4.994;2022-12-20T15:33:40;10.80;99.90
48666;DHT22;34452;50.796;4.994;2022-12-20T15:36:06;10.80;99.90
48666;DHT22;34452;50.796;4.994;2022-12-20T15:38:32;10.70;99.90
48666;DHT22;34452;50.796;4.994;2022-12-20T15:41:03;10.70;99.90
48666;DHT22;34452;50.796;4.994;2022-12-20T15:43:35;10.70;99.90
48666;DHT22;34452;50.796;4.994;2022-12-20T15:46:03;10.70;99.90
48666;DHT22;34452;50.796;4.994;2022-12-20T15:48:29;10.70;99.90
48666;DHT22;34452;50.796;4.994;2022-12-20T15:50:57;10.70;99.90
48666;DHT22;34452;50.796;4.994;2022-12-20T15:53:32;10.70;99.90
48666;DHT22;34452;50.796;4.994;2022-12-20T15:55:59;10.60;99.90
48666;DHT22;34452;50.796;4.994;2022-12-20T15:58:25;10.70;99.90
48666;DHT22;34452;50.796;4.994;2022-12-20T16:00:53;10.70;99.90
48666;DHT22;34452;50.796;4.994;2022-12-20T16:03:23;10.60;99.90
48666;DHT22;34452;50.796;4.994;2022-12-20T16:05:51;10.60;99.90
48666;DHT22;34452;50.796;4.994;2022-12-20T16:08:17;10.60;99.90
48666;DHT22;34452;50.796;4.994;2022-12-20T16:10:46;10.60;99.90
48666;DHT22;34452;50.796;4.994;2022-12-20T16:13:19;10.60;99.90
48666;DHT22;34452;50.796;4.994;2022-12-20T16:15:45;10.50;99.90
48666;DHT22;34452;50.796;4.994;2022-12-20T16:18:12;10.60;99.90
48666;DHT22;34452;50.796;4.994;2022-12-20T16:20:38;10.60;99.90
48666;DHT22;34452;50.796;4.994;2022-12-20T16:23:04;10.50;99.90
48666;DHT22;34452;50.796;4.994;2022-12-20T16:25:33;10.50;99.90
48666;DHT22;34452;50.796;4.994;2022-12-20T16:27:59;10.50;99.90
48666;DHT22;34452;50.796;4.994;2022-12-20T16:30:26;10.50;99.90
48666;DHT22;34452;50.796;4.994;2022-12-20T16:32:52;10.60;99.90
48666;DHT22;34452;50.796;4.994;2022-12-20T16:37:47;10.60;99.90
48666;DHT22;34452;50.796;4.994;2022-12-20T16:40:13;10.60;99.90
48666;DHT22;34452;50.796;4.994;2022-12-20T16:42:40;10.50;99.90
48666;DHT22;34452;50.796;4.994;2022-12-20T16:45:09;10.60;99.90
48666;DHT22;34452;50.796;4.994;2022-12-20T16:47:37;10.60;99.90
48666;DHT22;34452;50.796;4.994;2022-12-20T16:50:05;10.60;99.90
48666;DHT22;34452;50.796;4.994;2022-12-20T16:52:32;10.60;99.90
48666;DHT22;34452;50.796;4.994;2022-12-20T16:55:02;10.60;99.90
48666;DHT22;34452;50.796;4.994;2022-12-20T16:57:28;10.60;99.90
48666;DHT22;34452;50.796;4.994;2022-12-20T16:59:53;10.60;99.90
48666;DHT22;34452;50.796;4.994;2022-12-20T17:02:26;10.60;99.90
48666;DHT22;34452;50.796;4.994;2022-12-20T17:04:52;10.60;99.90
48666;DHT22;34452;50.796;4.994;2022-12-20T17:07:18;10.60;99.90
48666;DHT22;34452;50.796;4.994;2022-12-20T17:09:43;10.50;99.90
48666;DHT22;34452;50.796;4.994;2022-12-20T17:12:17;10.60;99.90
48666;DHT22;34452;50.796;4.994;2022-12-20T17:14:44;10.60;99.90
48666;DHT22;34452;50.796;4.994;2022-12-20T17:17:10;10.50;99.90
48666;DHT22;34452;50.796;4.994;2022-12-20T17:19:36;10.60;99.90
48666;DHT22;34452;50.796;4.994;2022-12-20T17:22:02;10.50;99.90
48666;DHT22;34452;50.796;4.994;2022-12-20T17:24:28;10.50;99.90
48666;DHT22;34452;50.796;4.994;2022-12-20T17:26:54;10.50;99.90
48666;DHT22;34452;50.796;4.994;2022-12-20T17:29:20;10.50;99.90
48666;DHT22;34452;50.796;4.994;2022-12-20T17:31:46;10.60;99.90
48666;DHT22;34452;50.796;4.994;2022-12-20T17:34:19;10.50;99.90
48666;DHT22;34452;50.796;4.994;2022-12-20T17:36:46;10.50;99.90
48666;DHT22;34452;50.796;4.994;2022-12-20T17:39:12;10.50;99.90
48666;DHT22;34452;50.796;4.994;2022-12-20T17:41:38;10.50;99.90
48666;DHT22;34452;50.796;4.994;2022-12-20T17:44:05;10.40;99.90
48666;DHT22;34452;50.796;4.994;2022-12-20T17:46:31;10.50;99.90
48666;DHT22;34452;50.796;4.994;2022-12-20T17:48:57;10.50;99.90
48666;DHT22;34452;50.796;4.994;2022-12-20T17:51:27;10.50;99.90
48666;DHT22;34452;50.796;4.994;2022-12-20T17:53:55;10.40;99.90
48666;DHT22;34452;50.796;4.994;2022-12-20T17:56:23;10.40;99.90